sensor_id;sensor_type;location;lat;lon;timestamp;pressure;altitude;pressure_sealevel;temperature;humidity
74834;BME280;63361;52.384;20.930;2023-02-01T00:01:50;99330.84;;;2.62;100.00
74834;BME280;63361;52.384;20.930;2023-02-01T00:04:15;99337.50;;;2.60;100.00
74834;BME280;63361;52.384;20.930;2023-02-01T00:06:41;99350.59;;;2.66;100.00
74834;BME280;63361;52.384;20.930;2023-02-01T00:09:06;99346.06;;;2.67;100.00
74834;BME280;63361;52.384;20.930;2023-02-01T00:11:32;99349.78;;;2.66;100.00
74834;BME280;63361;52.384;20.930;2023-02-01T00:13:58;99349.00;;;2.65;100.00
74834;BME280;63361;52.384;20.930;2023-02-01T00:16:26;99331.09;;;2.61;100.00
74834;BME280;63361;52.384;20.930;2023-02-01T00:18:57;99338.69;;;2.74;100.00
74834;BME280;63361;52.384;20.930;2023-02-01T00:21:23;99363.75;;;2.78;100.00
74834;BME280;63361;52.384;20.930;2023-02-01T00:23:48;99361.34;;;2.76;100.00
74834;BME280;63361;52.384;20.930;2023-02-01T00:26:16;99365.34;;;2.79;100.00
74834;BME280;63361;52.384;20.930;2023-02-01T00:28:42;99361.63;;;2.75;100.00
74834;BME280;63361;52.384;20.930;2023-02-01T00:31:07;99370.66;;;2.74;100.00
74834;BME280;63361;52.384;20.930;2023-02-01T00:33:33;99367.44;;;2.72;100.00
74834;BME280;63361;52.384;20.930;2023-02-01T00:36:09;99372.53;;;2.73;100.00
74834;BME280;63361;52.384;20.930;2023-02-01T00:38:37;99373.31;;;2.74;100.00
74834;BME280;63361;52.384;20.930;2023-02-01T00:41:19;99375.50;;;2.82;100.00
74834;BME280;63361;52.384;20.930;2023-02-01T00:43:45;99394.22;;;2.87;100.00
74834;BME280;63361;52.384;20.930;2023-02-01T00:46:12;99358.91;;;2.70;100.00
74834;BME280;63361;52.384;20.930;2023-02-01T00:48:38;99314.34;;;2.33;99.99
74834;BME280;63361;52.384;20.930;2023-02-01T00:51:07;99388.03;;;2.81;100.00
74834;BME280;63361;52.384;20.930;2023-02-01T00:53:33;99395.16;;;2.76;99.78
74834;BME280;63361;52.384;20.930;2023-02-01T00:55:59;99386.34;;;2.70;99.07
74834;BME280;63361;52.384;20.930;2023-02-01T00:58:24;99394.94;;;2.51;99.29
74834;BME280;63361;52.384;20.930;2023-02-01T01:01:12;99386.09;;;2.45;97.86
74834;BME280;63361;52.384;20.930;2023-02-01T01:03:41;99382.47;;;2.29;97.85
74834;BME280;63361;52.384;20.930;2023-02-01T01:06:09;99400.03;;;2.25;98.86
74834;BME280;63361;52.384;20.930;2023-02-01T01:08:35;99382.44;;;2.24;98.10
74834;BME280;63361;52.384;20.930;2023-02-01T01:11:10;99378.75;;;2.30;97.41
74834;BME280;63361;52.384;20.930;2023-02-01T01:13:36;99382.63;;;2.18;97.96
74834;BME280;63361;52.384;20.930;2023-02-01T01:16:03;99386.28;;;2.11;97.52
74834;BME280;63361;52.384;20.930;2023-02-01T01:18:30;99393.16;;;2.07;98.26
74834;BME280;63361;52.384;20.930;2023-02-01T01:20:56;99402.75;;;2.08;98.56
74834;BME280;63361;52.384;20.930;2023-02-01T01:23:22;99407.69;;;2.22;97.96
74834;BME280;63361;52.384;20.930;2023-02-01T01:25:47;99429.88;;;2.27;98.31
74834;BME280;63361;52.384;20.930;2023-02-01T01:28:12;99411.63;;;2.41;97.23
74834;BME280;63361;52.384;20.930;2023-02-01T01:30:38;99415.13;;;2.46;96.59
74834;BME280;63361;52.384;20.930;2023-02-01T01:33:03;99411.63;;;2.41;96.68
74834;BME280;63361;52.384;20.930;2023-02-01T01:35:30;99414.16;;;2.31;97.27
74834;BME280;63361;52.384;20.930;2023-02-01T01:37:56;99415.75;;;2.27;97.14
74834;BME280;63361;52.384;20.930;2023-02-01T01:40:22;99423.03;;;2.36;96.72
74834;BME280;63361;52.384;20.930;2023-02-01T01:42:47;99426.81;;;2.40;96.71
74834;BME280;63361;52.384;20.930;2023-02-01T01:45:24;99425.22;;;2.44;96.30
74834;BME280;63361;52.384;20.930;2023-02-01T01:47:56;99425.53;;;2.48;96.15
74834;BME280;63361;52.384;20.930;2023-02-01T01:50:44;99433.53;;;2.48;95.73
74834;BME280;63361;52.384;20.930;2023-02-01T01:53:16;99420.38;;;2.36;96.23
74834;BME280;63361;52.384;20.930;2023-02-01T01:55:43;99426.00;;;2.40;96.01
74834;BME280;63361;52.384;20.930;2023-02-01T01:58:16;99415.78;;;2.32;96.37
74834;BME280;63361;52.384;20.930;2023-02-01T02:00:43;99431.56;;;2.38;95.69
74834;BME280;63361;52.384;20.930;2023-02-01T02:03:33;99414.41;;;2.29;95.49
74834;BME280;63361;52.384;20.930;2023-02-01T02:06:02;99425.06;;;2.29;95.32
74834;BME280;63361;52.384;20.930;2023-02-01T02:08:28;99415.38;;;2.18;95.81
74834;BME280;63361;52.384;20.930;2023-02-01T02:10:54;99421.81;;;2.22;96.26
74834;BME280;63361;52.384;20.930;2023-02-01T02:13:35;99421.38;;;2.08;95.83
74834;BME280;63361;52.384;20.930;2023-02-01T02:21:56;99435.53;;;2.36;95.07
74834;BME280;63361;52.384;20.930;2023-02-01T02:27:19;99441.59;;;2.31;95.13
74834;BME280;63361;52.384;20.930;2023-02-01T02:38:20;99430.63;;;2.50;93.51
74834;BME280;63361;52.384;20.930;2023-02-01T02:43:23;99449.66;;;2.63;93.18
74834;BME280;63361;52.384;20.930;2023-02-01T02:46:47;99452.38;;;2.68;93.09
74834;BME280;63361;52.384;20.930;2023-02-01T02:49:49;99450.16;;;2.60;92.93
74834;BME280;63361;52.384;20.930;2023-02-01T02:52:42;99455.25;;;2.62;92.95
74834;BME280;63361;52.384;20.930;2023-02-01T02:55:30;99467.00;;;2.66;92.75
74834;BME280;63361;52.384;20.930;2023-02-01T02:57:58;99444.19;;;2.48;93.23
74834;BME280;63361;52.384;20.930;2023-02-01T03:00:44;99450.94;;;2.56;93.30
74834;BME280;63361;52.384;20.930;2023-02-01T03:03:28;99442.56;;;2.47;93.34
74834;BME280;63361;52.384;20.930;2023-02-01T03:06:16;99458.31;;;2.48;93.58
74834;BME280;63361;52.384;20.930;2023-02-01T03:08:43;99452.66;;;2.45;93.52
74834;BME280;63361;52.384;20.930;2023-02-01T03:11:12;99470.88;;;2.53;93.74
74834;BME280;63361;52.384;20.930;2023-02-01T03:14:05;99465.38;;;2.60;93.34
74834;BME280;63361;52.384;20.930;2023-02-01T03:19:31;99457.00;;;2.51;93.72
74834;BME280;63361;52.384;20.930;2023-02-01T03:22:03;99454.72;;;2.16;94.47
74834;BME280;63361;52.384;20.930;2023-02-01T03:24:34;99468.72;;;2.06;95.87
74834;BME280;63361;52.384;20.930;2023-02-01T03:29:48;99475.72;;;2.34;96.66
74834;BME280;63361;52.384;20.930;2023-02-01T03:32:15;99463.34;;;2.23;96.72
74834;BME280;63361;52.384;20.930;2023-02-01T03:34:41;99472.53;;;2.10;98.00
74834;BME280;63361;52.384;20.930;2023-02-01T03:37:10;99475.59;;;2.02;98.65
74834;BME280;63361;52.384;20.930;2023-02-01T03:39:46;99485.88;;;1.94;99.60
74834;BME280;63361;52.384;20.930;2023-02-01T03:42:18;99469.25;;;1.87;99.77
74834;BME280;63361;52.384;20.930;2023-02-01T03:44:49;99486.34;;;1.91;100.00
74834;BME280;63361;52.384;20.930;2023-02-01T03:47:21;99479.63;;;2.05;100.00
74834;BME280;63361;52.384;20.930;2023-02-01T03:49:58;99479.81;;;1.98;100.00
74834;BME280;63361;52.384;20.930;2023-02-01T03:52:29;99485.38;;;1.97;100.00
74834;BME280;63361;52.384;20.930;2023-02-01T03:54:56;99466.69;;;1.92;100.00
74834;BME280;63361;52.384;20.930;2023-02-01T03:57:26;99468.47;;;1.86;100.00
74834;BME280;63361;52.384;20.930;2023-02-01T03:59:53;99465.25;;;1.84;100.00
74834;BME280;63361;52.384;20.930;2023-02-01T04:02:19;99471.44;;;1.90;100.00
74834;BME280;63361;52.384;20.930;2023-02-01T04:04:44;99468.22;;;1.88;100.00
74834;BME280;63361;52.384;20.930;2023-02-01T04:07:10;99465.38;;;1.94;100.00
74834;BME280;63361;52.384;20.930;2023-02-01T04:09:36;99467.63;;;2.02;100.00
74834;BME280;63361;52.384;20.930;2023-02-01T04:12:01;99471.06;;;2.03;100.00
74834;BME280;63361;52.384;20.930;2023-02-01T04:14:27;99448.22;;;1.85;100.00
74834;BME280;63361;52.384;20.930;2023-02-01T04:16:52;99414.56;;;1.74;100.00
74834;BME280;63361;52.384;20.930;2023-02-01T04:19:18;99440.19;;;1.80;100.00
74834;BME280;63361;52.384;20.930;2023-02-01T04:21:43;99476.47;;;2.08;100.00
74834;BME280;63361;52.384;20.930;2023-02-01T04:24:08;99473.88;;;2.13;100.00
74834;BME280;63361;52.384;20.930;2023-02-01T04:26:33;99474.19;;;2.17;99.89
74834;BME280;63361;52.384;20.930;2023-02-01T04:28:59;99474.97;;;2.17;99.33
74834;BME280;63361;52.384;20.930;2023-02-01T04:31:24;99484.44;;;2.30;98.71
74834;BME280;63361;52.384;20.930;2023-02-01T04:33:53;99478.88;;;2.31;98.08
74834;BME280;63361;52.384;20.930;2023-02-01T04:36:20;99496.03;;;2.40;97.15
74834;BME280;63361;52.384;20.930;2023-02-01T04:38:47;99489.03;;;2.56;94.92
74834;BME280;63361;52.384;20.930;2023-02-01T04:41:12;99476.63;;;2.45;95.97
74834;BME280;63361;52.384;20.930;2023-02-01T04:43:37;99495.72;;;2.59;95.33
74834;BME280;63361;52.384;20.930;2023-02-01T04:46:03;99481.47;;;2.48;94.98
74834;BME280;63361;52.384;20.930;2023-02-01T04:48:29;99493.09;;;2.64;94.44
74834;BME280;63361;52.384;20.930;2023-02-01T04:50:55;99477.25;;;2.52;94.43
74834;BME280;63361;52.384;20.930;2023-02-01T04:53:20;99487.16;;;2.57;94.07
74834;BME280;63361;52.384;20.930;2023-02-01T04:55:48;99501.97;;;2.69;93.68
74834;BME280;63361;52.384;20.930;2023-02-01T04:58:14;99492.53;;;2.62;93.46
74834;BME280;63361;52.384;20.930;2023-02-01T05:00:39;99498.72;;;2.67;93.17
74834;BME280;63361;52.384;20.930;2023-02-01T05:03:04;99501.72;;;2.71;93.24
74834;BME280;63361;52.384;20.930;2023-02-01T05:05:30;99482.50;;;2.69;92.16
74834;BME280;63361;52.384;20.930;2023-02-01T05:07:55;99472.03;;;2.62;91.89
74834;BME280;63361;52.384;20.930;2023-02-01T05:10:21;99494.56;;;2.76;91.15
74834;BME280;63361;52.384;20.930;2023-02-01T05:12:46;99503.66;;;2.80;91.33
74834;BME280;63361;52.384;20.930;2023-02-01T05:15:30;99496.41;;;2.76;91.70
74834;BME280;63361;52.384;20.930;2023-02-01T05:17:57;99498.00;;;2.72;91.61
74834;BME280;63361;52.384;20.930;2023-02-01T05:20:23;99498.66;;;2.84;90.60
74834;BME280;63361;52.384;20.930;2023-02-01T05:22:48;99489.78;;;2.78;90.24
74834;BME280;63361;52.384;20.930;2023-02-01T05:25:14;99500.75;;;2.82;90.57
74834;BME280;63361;52.384;20.930;2023-02-01T05:27:39;99491.09;;;2.76;90.55
74834;BME280;63361;52.384;20.930;2023-02-01T05:30:05;99492.66;;;2.72;90.77
74834;BME280;63361;52.384;20.930;2023-02-01T05:32:31;99481.50;;;2.75;90.62
74834;BME280;63361;52.384;20.930;2023-02-01T05:34:56;99492.34;;;2.68;91.43
74834;BME280;63361;52.384;20.930;2023-02-01T05:37:22;99482.19;;;2.65;90.92
74834;BME280;63361;52.384;20.930;2023-02-01T05:39:47;99476.38;;;2.68;91.26
74834;BME280;63361;52.384;20.930;2023-02-01T05:42:12;99477.91;;;2.64;91.12
74834;BME280;63361;52.384;20.930;2023-02-01T05:44:38;99485.72;;;2.71;90.68
74834;BME280;63361;52.384;20.930;2023-02-01T05:47:03;99480.88;;;2.68;91.58
74834;BME280;63361;52.384;20.930;2023-02-01T05:49:29;99486.31;;;2.78;90.83
74834;BME280;63361;52.384;20.930;2023-02-01T05:51:54;99490.50;;;2.69;90.69
74834;BME280;63361;52.384;20.930;2023-02-01T05:54:19;99482.19;;;2.65;91.54
74834;BME280;63361;52.384;20.930;2023-02-01T05:56:45;99469.25;;;2.74;91.31
74834;BME280;63361;52.384;20.930;2023-02-01T05:59:10;99480.19;;;2.77;90.73
74834;BME280;63361;52.384;20.930;2023-02-01T06:01:35;99480.16;;;2.72;91.14
74834;BME280;63361;52.384;20.930;2023-02-01T06:04:01;99480.66;;;2.69;91.06
74834;BME280;63361;52.384;20.930;2023-02-01T06:06:26;99492.94;;;2.75;91.43
74834;BME280;63361;52.384;20.930;2023-02-01T06:08:51;99471.53;;;2.65;91.88
74834;BME280;63361;52.384;20.930;2023-02-01T06:11:17;99462.16;;;2.58;92.35
74834;BME280;63361;52.384;20.930;2023-02-01T06:13:42;99469.13;;;2.64;91.95
74834;BME280;63361;52.384;20.930;2023-02-01T06:16:07;99474.25;;;2.70;91.46
74834;BME280;63361;52.384;20.930;2023-02-01T06:18:34;99465.09;;;2.61;91.54
74834;BME280;63361;52.384;20.930;2023-02-01T06:21:00;99463.91;;;2.74;91.02
74834;BME280;63361;52.384;20.930;2023-02-01T06:23:26;99464.41;;;2.71;91.33
74834;BME280;63361;52.384;20.930;2023-02-01T06:26:03;99460.06;;;2.65;91.19
74834;BME280;63361;52.384;20.930;2023-02-01T06:28:30;99461.38;;;2.62;91.54
74834;BME280;63361;52.384;20.930;2023-02-01T06:30:56;99461.63;;;2.61;91.67
74834;BME280;63361;52.384;20.930;2023-02-01T06:33:23;99469.75;;;2.71;91.08
74834;BME280;63361;52.384;20.930;2023-02-01T06:35:48;99467.09;;;2.76;90.71
74834;BME280;63361;52.384;20.930;2023-02-01T06:38:14;99463.84;;;2.69;92.30
74834;BME280;63361;52.384;20.930;2023-02-01T06:40:39;99477.81;;;2.81;91.87
74834;BME280;63361;52.384;20.930;2023-02-01T06:43:07;99478.13;;;2.85;92.16
74834;BME280;63361;52.384;20.930;2023-02-01T06:45:32;99437.06;;;2.54;91.29
74834;BME280;63361;52.384;20.930;2023-02-01T06:47:58;99468.72;;;2.77;91.97
74834;BME280;63361;52.384;20.930;2023-02-01T06:50:24;99477.06;;;2.86;92.16
74834;BME280;63361;52.384;20.930;2023-02-01T06:52:50;99444.00;;;2.55;91.53
74834;BME280;63361;52.384;20.930;2023-02-01T06:55:15;99484.13;;;2.70;91.97
74834;BME280;63361;52.384;20.930;2023-02-01T06:57:40;99484.94;;;2.75;92.27
74834;BME280;63361;52.384;20.930;2023-02-01T07:00:06;99474.56;;;2.74;91.48
74834;BME280;63361;52.384;20.930;2023-02-01T07:02:32;99471.59;;;2.70;91.77
74834;BME280;63361;52.384;20.930;2023-02-01T07:04:57;99463.53;;;2.65;91.84
74834;BME280;63361;52.384;20.930;2023-02-01T07:07:22;99463.69;;;2.54;92.19
74834;BME280;63361;52.384;20.930;2023-02-01T07:09:51;99460.78;;;2.55;92.53
74834;BME280;63361;52.384;20.930;2023-02-01T07:12:16;99457.88;;;2.57;92.61
74834;BME280;63361;52.384;20.930;2023-02-01T07:14:42;99440.94;;;2.41;92.74
74834;BME280;63361;52.384;20.930;2023-02-01T07:17:07;99469.34;;;2.57;92.69
74834;BME280;63361;52.384;20.930;2023-02-01T07:19:32;99473.09;;;2.61;92.13
74834;BME280;63361;52.384;20.930;2023-02-01T07:21:58;99469.91;;;2.59;92.35
74834;BME280;63361;52.384;20.930;2023-02-01T07:24:23;99481.50;;;2.75;92.09
74834;BME280;63361;52.384;20.930;2023-02-01T07:26:49;99493.31;;;2.84;91.88
74834;BME280;63361;52.384;20.930;2023-02-01T07:29:16;99498.56;;;2.74;92.54
74834;BME280;63361;52.384;20.930;2023-02-01T07:31:42;99476.56;;;2.62;93.64
74834;BME280;63361;52.384;20.930;2023-02-01T07:34:07;99488.53;;;2.59;94.48
74834;BME280;63361;52.384;20.930;2023-02-01T07:36:33;99515.53;;;2.68;95.25
74834;BME280;63361;52.384;20.930;2023-02-01T07:38:59;99476.69;;;2.50;95.69
74834;BME280;63361;52.384;20.930;2023-02-01T07:41:24;99496.88;;;2.46;95.82
74834;BME280;63361;52.384;20.930;2023-02-01T07:43:52;99500.34;;;2.46;96.47
74834;BME280;63361;52.384;20.930;2023-02-01T07:46:18;99472.50;;;2.32;96.89
74834;BME280;63361;52.384;20.930;2023-02-01T07:48:43;99491.53;;;2.41;97.21
74834;BME280;63361;52.384;20.930;2023-02-01T07:51:14;99482.09;;;2.33;96.89
74834;BME280;63361;52.384;20.930;2023-02-01T07:53:40;99477.97;;;2.42;96.89
74834;BME280;63361;52.384;20.930;2023-02-01T07:56:11;99476.38;;;2.46;96.91
74834;BME280;63361;52.384;20.930;2023-02-01T07:58:37;99481.59;;;2.58;95.98
74834;BME280;63361;52.384;20.930;2023-02-01T08:01:02;99473.78;;;2.52;96.69
74834;BME280;63361;52.384;20.930;2023-02-01T08:03:47;99479.13;;;2.52;96.90
74834;BME280;63361;52.384;20.930;2023-02-01T08:06:13;99491.78;;;2.66;96.96
74834;BME280;63361;52.384;20.930;2023-02-01T08:08:39;99486.22;;;2.68;96.93
74834;BME280;63361;52.384;20.930;2023-02-01T08:11:05;99477.19;;;2.69;95.71
74834;BME280;63361;52.384;20.930;2023-02-01T08:13:33;99488.72;;;2.79;96.19
74834;BME280;63361;52.384;20.930;2023-02-01T08:16:00;99476.78;;;2.82;95.20
74834;BME280;63361;52.384;20.930;2023-02-01T08:18:25;99471.03;;;2.95;95.37
74834;BME280;63361;52.384;20.930;2023-02-01T08:20:51;99486.03;;;3.01;94.67
74834;BME280;63361;52.384;20.930;2023-02-01T08:23:16;99484.41;;;3.00;94.42
74834;BME280;63361;52.384;20.930;2023-02-01T08:25:42;99441.78;;;2.73;95.01
74834;BME280;63361;52.384;20.930;2023-02-01T08:28:08;99450.75;;;2.94;93.46
74834;BME280;63361;52.384;20.930;2023-02-01T08:30:33;99485.69;;;3.25;93.16
74834;BME280;63361;52.384;20.930;2023-02-01T08:32:59;99468.59;;;3.21;92.03
74834;BME280;63361;52.384;20.930;2023-02-01T08:35:24;99466.50;;;3.28;91.97
74834;BME280;63361;52.384;20.930;2023-02-01T08:37:50;99473.25;;;3.40;91.47
74834;BME280;63361;52.384;20.930;2023-02-01T08:40:15;99475.91;;;3.35;91.92
74834;BME280;63361;52.384;20.930;2023-02-01T08:42:41;99467.00;;;3.20;92.28
74834;BME280;63361;52.384;20.930;2023-02-01T08:45:16;99466.56;;;3.06;94.11
74834;BME280;63361;52.384;20.930;2023-02-01T08:47:42;99482.06;;;3.04;95.44
74834;BME280;63361;52.384;20.930;2023-02-01T08:50:08;99483.69;;;3.10;95.75
74834;BME280;63361;52.384;20.930;2023-02-01T08:52:34;99474.50;;;2.96;97.12
74834;BME280;63361;52.384;20.930;2023-02-01T08:54:59;99471.00;;;2.90;96.61
74834;BME280;63361;52.384;20.930;2023-02-01T08:57:24;99484.41;;;3.00;97.06
74834;BME280;63361;52.384;20.930;2023-02-01T08:59:50;99479.88;;;3.01;95.92
74834;BME280;63361;52.384;20.930;2023-02-01T09:02:17;99485.00;;;3.07;96.05
74834;BME280;63361;52.384;20.930;2023-02-01T09:04:42;99478.78;;;2.97;96.08
74834;BME280;63361;52.384;20.930;2023-02-01T09:07:09;99484.91;;;2.97;95.84
74834;BME280;63361;52.384;20.930;2023-02-01T09:09:35;99479.06;;;3.00;95.76
74834;BME280;63361;52.384;20.930;2023-02-01T09:12:00;99445.84;;;2.81;95.82
74834;BME280;63361;52.384;20.930;2023-02-01T09:14:25;99474.56;;;3.06;94.72
74834;BME280;63361;52.384;20.930;2023-02-01T09:16:51;99431.16;;;3.10;94.08
74834;BME280;63361;52.384;20.930;2023-02-01T09:19:16;99471.84;;;3.65;91.93
74834;BME280;63361;52.384;20.930;2023-02-01T09:21:42;99441.69;;;3.64;89.52
74834;BME280;63361;52.384;20.930;2023-02-01T09:24:10;99470.97;;;3.96;88.67
74834;BME280;63361;52.384;20.930;2023-02-01T09:26:36;99438.81;;;4.43;86.85
74834;BME280;63361;52.384;20.930;2023-02-01T09:29:01;99468.09;;;5.31;83.58
74834;BME280;63361;52.384;20.930;2023-02-01T09:31:29;99462.72;;;5.46;81.14
74834;BME280;63361;52.384;20.930;2023-02-01T09:33:55;99441.59;;;5.50;79.04
74834;BME280;63361;52.384;20.930;2023-02-01T09:36:21;99448.00;;;5.44;79.96
74834;BME280;63361;52.384;20.930;2023-02-01T09:38:46;99446.34;;;5.68;78.94
74834;BME280;63361;52.384;20.930;2023-02-01T09:44:45;99464.03;;;5.64;78.94
74834;BME280;63361;52.384;20.930;2023-02-01T09:47:12;99479.31;;;4.98;81.00
74834;BME280;63361;52.384;20.930;2023-02-01T09:49:45;99461.09;;;4.79;81.73
74834;BME280;63361;52.384;20.930;2023-02-01T09:52:15;99431.13;;;4.57;81.95
74834;BME280;63361;52.384;20.930;2023-02-01T09:54:47;99433.25;;;4.55;81.19
74834;BME280;63361;52.384;20.930;2023-02-01T09:57:25;99478.69;;;4.60;81.94
74834;BME280;63361;52.384;20.930;2023-02-01T10:00:06;99487.44;;;4.40;82.07
74834;BME280;63361;52.384;20.930;2023-02-01T10:02:35;99467.13;;;4.34;82.68
74834;BME280;63361;52.384;20.930;2023-02-01T10:05:03;99486.06;;;4.33;82.90
74834;BME280;63361;52.384;20.930;2023-02-01T10:07:40;99484.22;;;4.43;82.67
74834;BME280;63361;52.384;20.930;2023-02-01T10:10:17;99485.31;;;4.42;82.47
74834;BME280;63361;52.384;20.930;2023-02-01T10:26:17;99469.56;;;4.41;81.63
74834;BME280;63361;52.384;20.930;2023-02-01T10:28:56;99466.09;;;4.50;81.72
74834;BME280;63361;52.384;20.930;2023-02-01T10:31:29;99446.84;;;4.38;81.42
74834;BME280;63361;52.384;20.930;2023-02-01T10:33:58;99475.50;;;4.58;81.34
74834;BME280;63361;52.384;20.930;2023-02-01T10:36:31;99459.69;;;4.51;80.71
74834;BME280;63361;52.384;20.930;2023-02-01T10:39:00;99440.41;;;4.44;80.47
74834;BME280;63361;52.384;20.930;2023-02-01T10:41:33;99470.59;;;4.45;81.81
74834;BME280;63361;52.384;20.930;2023-02-01T10:44:00;99463.13;;;4.47;81.45
74834;BME280;63361;52.384;20.930;2023-02-01T10:46:29;99474.41;;;4.54;82.27
74834;BME280;63361;52.384;20.930;2023-02-01T10:48:56;99456.81;;;4.78;79.92
74834;BME280;63361;52.384;20.930;2023-02-01T10:51:29;99461.59;;;4.76;79.98
74834;BME280;63361;52.384;20.930;2023-02-01T10:54:14;99461.09;;;4.79;79.44
74834;BME280;63361;52.384;20.930;2023-02-01T10:56:43;99473.66;;;5.04;79.03
74834;BME280;63361;52.384;20.930;2023-02-01T10:59:19;99471.53;;;5.06;79.22
74834;BME280;63361;52.384;20.930;2023-02-01T11:01:47;99464.06;;;4.88;79.09
74834;BME280;63361;52.384;20.930;2023-02-01T11:04:16;99470.19;;;4.93;79.77
74834;BME280;63361;52.384;20.930;2023-02-01T11:06:47;99463.78;;;4.84;79.50
74834;BME280;63361;52.384;20.930;2023-02-01T11:09:21;99451.72;;;4.72;80.03
74834;BME280;63361;52.384;20.930;2023-02-01T11:14:40;99445.03;;;4.89;79.54
74834;BME280;63361;52.384;20.930;2023-02-01T11:19:56;99446.38;;;4.82;78.97
74834;BME280;63361;52.384;20.930;2023-02-01T11:22:24;99442.09;;;4.76;79.68
74834;BME280;63361;52.384;20.930;2023-02-01T11:24:50;99438.34;;;4.67;79.92
74834;BME280;63361;52.384;20.930;2023-02-01T11:27:21;99433.53;;;4.69;79.59
74834;BME280;63361;52.384;20.930;2023-02-01T11:29:50;99451.97;;;4.75;80.46
74834;BME280;63361;52.384;20.930;2023-02-01T11:32:18;99445.28;;;4.68;79.89
74834;BME280;63361;52.384;20.930;2023-02-01T11:34:55;99456.00;;;4.68;80.14
74834;BME280;63361;52.384;20.930;2023-02-01T11:37:55;99460.78;;;4.60;80.21
74834;BME280;63361;52.384;20.930;2023-02-01T11:40:30;99446.31;;;4.46;80.33
74834;BME280;63361;52.384;20.930;2023-02-01T11:43:24;99460.78;;;4.55;80.63
74834;BME280;63361;52.384;20.930;2023-02-01T11:45:55;99455.94;;;4.52;80.91
74834;BME280;63361;52.384;20.930;2023-02-01T11:48:23;99468.00;;;4.65;80.43
74834;BME280;63361;52.384;20.930;2023-02-01T11:56:33;99457.06;;;4.77;80.02
74834;BME280;63361;52.384;20.930;2023-02-01T12:02:08;99454.16;;;4.99;78.78
74834;BME280;63361;52.384;20.930;2023-02-01T12:13:16;99439.63;;;4.49;83.42
74834;BME280;63361;52.384;20.930;2023-02-01T12:16:12;99450.78;;;4.31;87.43
74834;BME280;63361;52.384;20.930;2023-02-01T12:19:02;99443.53;;;4.16;88.79
74834;BME280;63361;52.384;20.930;2023-02-01T12:30:07;99446.91;;;4.79;86.42
74834;BME280;63361;52.384;20.930;2023-02-01T12:38:58;99430.00;;;5.80;81.81
74834;BME280;63361;52.384;20.930;2023-02-01T12:43:53;99424.75;;;5.29;83.05
74834;BME280;63361;52.384;20.930;2023-02-01T12:46:25;99420.19;;;5.04;84.09
74834;BME280;63361;52.384;20.930;2023-02-01T12:49:04;99425.81;;;5.13;82.90
74834;BME280;63361;52.384;20.930;2023-02-01T12:51:39;99431.44;;;5.11;82.89
74834;BME280;63361;52.384;20.930;2023-02-01T12:54:22;99417.50;;;5.40;81.58
74834;BME280;63361;52.384;20.930;2023-02-01T12:56:56;99404.13;;;5.29;82.27
74834;BME280;63361;52.384;20.930;2023-02-01T12:59:35;99427.09;;;5.51;80.63
74834;BME280;63361;52.384;20.930;2023-02-01T13:02:03;99431.34;;;5.72;79.58
74834;BME280;63361;52.384;20.930;2023-02-01T13:04:42;99411.63;;;5.33;79.35
74834;BME280;63361;52.384;20.930;2023-02-01T13:07:16;99432.38;;;6.02;78.25
74834;BME280;63361;52.384;20.930;2023-02-01T13:09:54;99404.84;;;5.65;78.41
74834;BME280;63361;52.384;20.930;2023-02-01T13:12:28;99437.22;;;5.84;78.55
74834;BME280;63361;52.384;20.930;2023-02-01T13:15:53;99410.53;;;5.49;79.26
74834;BME280;63361;52.384;20.930;2023-02-01T13:17:51;99436.22;;;5.60;79.37
74834;BME280;63361;52.384;20.930;2023-02-01T13:20:35;99441.31;;;5.31;81.02
74834;BME280;63361;52.384;20.930;2023-02-01T13:23:07;99433.84;;;5.18;81.60
74834;BME280;63361;52.384;20.930;2023-02-01T13:25:39;99435.69;;;5.07;82.49
74834;BME280;63361;52.384;20.930;2023-02-01T13:28:16;99433.03;;;5.02;81.40
74834;BME280;63361;52.384;20.930;2023-02-01T13:36:53;99432.50;;;4.85;80.82
74834;BME280;63361;52.384;20.930;2023-02-01T13:42:23;99411.63;;;4.56;81.91
74834;BME280;63361;52.384;20.930;2023-02-01T13:45:05;99433.28;;;4.70;81.12
74834;BME280;63361;52.384;20.930;2023-02-01T13:47:44;99446.63;;;4.65;82.21
74834;BME280;63361;52.384;20.930;2023-02-01T13:52:45;99432.44;;;4.59;83.32
74834;BME280;63361;52.384;20.930;2023-02-01T13:57:46;99433.25;;;4.60;83.36
74834;BME280;63361;52.384;20.930;2023-02-01T14:00:37;99442.91;;;4.71;82.78
74834;BME280;63361;52.384;20.930;2023-02-01T14:08:11;99420.72;;;4.71;81.96
74834;BME280;63361;52.384;20.930;2023-02-01T14:10:50;99450.94;;;4.81;82.69
74834;BME280;63361;52.384;20.930;2023-02-01T14:16:16;99447.97;;;4.68;82.39
74834;BME280;63361;52.384;20.930;2023-02-01T14:23:56;99443.31;;;4.33;83.89
74834;BME280;63361;52.384;20.930;2023-02-01T14:26:41;99438.03;;;4.48;83.85
74834;BME280;63361;52.384;20.930;2023-02-01T14:47:41;99443.53;;;4.11;86.28
74834;BME280;63361;52.384;20.930;2023-02-01T14:52:42;99439.31;;;4.25;85.49
74834;BME280;63361;52.384;20.930;2023-02-01T14:55:19;99426.97;;;4.14;85.20
74834;BME280;63361;52.384;20.930;2023-02-01T14:57:49;99434.75;;;4.20;85.01
74834;BME280;63361;52.384;20.930;2023-02-01T15:00:20;99450.28;;;4.34;84.78
74834;BME280;63361;52.384;20.930;2023-02-01T15:02:47;99440.31;;;4.14;85.20
74834;BME280;63361;52.384;20.930;2023-02-01T15:05:27;99449.38;;;4.08;85.78
74834;BME280;63361;52.384;20.930;2023-02-01T15:07:58;99458.66;;;3.90;86.30
74834;BME280;63361;52.384;20.930;2023-02-01T15:10:26;99450.03;;;3.78;86.03
74834;BME280;63361;52.384;20.930;2023-02-01T15:12:52;99459.66;;;3.79;86.09
74834;BME280;63361;52.384;20.930;2023-02-01T15:15:22;99460.84;;;4.03;85.82
74834;BME280;63361;52.384;20.930;2023-02-01T15:17:59;99463.28;;;4.10;84.89
74834;BME280;63361;52.384;20.930;2023-02-01T15:20:30;99459.78;;;4.04;85.05
74834;BME280;63361;52.384;20.930;2023-02-01T15:22:59;99457.34;;;3.98;85.21
74834;BME280;63361;52.384;20.930;2023-02-01T15:25:26;99465.66;;;4.06;85.04